sensor_id;sensor_type;location;lat;lon;timestamp;pressure;altitude;pressure_sealevel;temperature;humidity
76808;BME280;65758;45.458;11.062;2024-03-25T00:01:04;100277.97;;;8.86;49.93
76808;BME280;65758;45.458;11.062;2024-03-25T00:03:31;100273.64;;;8.86;50.08
76808;BME280;65758;45.458;11.062;2024-03-25T00:05:58;100275.69;;;8.85;49.96
76808;BME280;65758;45.458;11.062;2024-03-25T00:08:24;100271.92;;;8.84;50.20
76808;BME280;65758;45.458;11.062;2024-03-25T00:10:51;100268.77;;;8.85;50.11
76808;BME280;65758;45.458;11.062;2024-03-25T00:13:17;100270.72;;;8.83;49.91
76808;BME280;65758;45.458;11.062;2024-03-25T00:15:46;100266.10;;;8.78;49.82
76808;BME280;65758;45.458;11.062;2024-03-25T00:18:13;100264.63;;;8.75;49.96
76808;BME280;65758;45.458;11.062;2024-03-25T00:20:39;100262.77;;;8.71;50.22
76808;BME280;65758;45.458;11.062;2024-03-25T00:23:06;100262.38;;;8.69;49.88
76808;BME280;65758;45.458;11.062;2024-03-25T00:25:34;100258.55;;;8.65;49.55
76808;BME280;65758;45.458;11.062;2024-03-25T00:28:00;100254.80;;;8.61;49.70
76808;BME280;65758;45.458;11.062;2024-03-25T00:30:27;100258.62;;;8.60;49.28
76808;BME280;65758;45.458;11.062;2024-03-25T00:32:53;100256.71;;;8.57;49.20
76808;BME280;65758;45.458;11.062;2024-03-25T00:35:20;100253.15;;;8.58;49.58
76808;BME280;65758;45.458;11.062;2024-03-25T00:37:46;100250.35;;;8.59;49.64
76808;BME280;65758;45.458;11.062;2024-03-25T00:40:13;100250.96;;;8.61;50.01
76808;BME280;65758;45.458;11.062;2024-03-25T00:42:40;100250.23;;;8.62;49.82
76808;BME280;65758;45.458;11.062;2024-03-25T00:45:07;100249.40;;;8.59;49.46
76808;BME280;65758;45.458;11.062;2024-03-25T00:47:35;100249.30;;;8.55;49.40
76808;BME280;65758;45.458;11.062;2024-03-25T00:50:02;100254.54;;;8.52;49.33
76808;BME280;65758;45.458;11.062;2024-03-25T00:52:28;100255.20;;;8.50;49.75
76808;BME280;65758;45.458;11.062;2024-03-25T00:54:55;100257.10;;;8.52;49.64
76808;BME280;65758;45.458;11.062;2024-03-25T00:57:22;100258.80;;;8.54;49.71
76808;BME280;65758;45.458;11.062;2024-03-25T00:59:49;100260.75;;;8.52;49.73
76808;BME280;65758;45.458;11.062;2024-03-25T01:02:16;100256.71;;;8.53;49.44
76808;BME280;65758;45.458;11.062;2024-03-25T01:04:43;100255.55;;;8.51;49.36
76808;BME280;65758;45.458;11.062;2024-03-25T01:07:10;100251.95;;;8.47;49.61
76808;BME280;65758;45.458;11.062;2024-03-25T01:09:36;100255.23;;;8.43;49.22
76808;BME280;65758;45.458;11.062;2024-03-25T01:12:03;100258.67;;;8.39;49.40
76808;BME280;65758;45.458;11.062;2024-03-25T01:14:29;100263.08;;;8.39;49.23
76808;BME280;65758;45.458;11.062;2024-03-25T01:16:56;100258.90;;;8.36;49.15
76808;BME280;65758;45.458;11.062;2024-03-25T01:19:23;100260.83;;;8.32;48.91
76808;BME280;65758;45.458;11.062;2024-03-25T01:21:49;100258.08;;;8.27;48.75
76808;BME280;65758;45.458;11.062;2024-03-25T01:24:16;100253.58;;;8.23;48.86
76808;BME280;65758;45.458;11.062;2024-03-25T01:26:43;100250.77;;;8.20;49.10
76808;BME280;65758;45.458;11.062;2024-03-25T01:29:09;100248.05;;;8.18;49.02
76808;BME280;65758;45.458;11.062;2024-03-25T01:31:36;100248.80;;;8.18;49.03
76808;BME280;65758;45.458;11.062;2024-03-25T01:34:02;100248.09;;;8.18;49.11
76808;BME280;65758;45.458;11.062;2024-03-25T01:36:29;100247.89;;;8.18;48.84
76808;BME280;65758;45.458;11.062;2024-03-25T01:38:56;100244.77;;;8.17;48.74
76808;BME280;65758;45.458;11.062;2024-03-25T01:41:22;100244.77;;;8.14;48.56
76808;BME280;65758;45.458;11.062;2024-03-25T01:43:49;100246.29;;;8.13;48.26
76808;BME280;65758;45.458;11.062;2024-03-25T01:46:19;100240.31;;;8.10;47.57
76808;BME280;65758;45.458;11.062;2024-03-25T01:48:49;100239.71;;;8.08;47.64
76808;BME280;65758;45.458;11.062;2024-03-25T01:51:17;100238.90;;;8.10;47.74
76808;BME280;65758;45.458;11.062;2024-03-25T01:53:47;100241.36;;;8.12;47.78
76808;BME280;65758;45.458;11.062;2024-03-25T01:56:15;100242.63;;;8.14;47.46
76808;BME280;65758;45.458;11.062;2024-03-25T01:58:43;100243.70;;;8.17;46.73
76808;BME280;65758;45.458;11.062;2024-03-25T02:01:11;100237.59;;;8.15;46.15
76808;BME280;65758;45.458;11.062;2024-03-25T02:03:44;100237.28;;;8.12;46.18
76808;BME280;65758;45.458;11.062;2024-03-25T02:06:17;100239.19;;;8.10;45.96
76808;BME280;65758;45.458;11.062;2024-03-25T02:08:44;100236.56;;;8.09;46.33
76808;BME280;65758;45.458;11.062;2024-03-25T02:11:11;100239.48;;;8.10;46.70
76808;BME280;65758;45.458;11.062;2024-03-25T02:13:39;100242.53;;;8.10;46.28
76808;BME280;65758;45.458;11.062;2024-03-25T02:16:06;100242.45;;;8.10;46.59
76808;BME280;65758;45.458;11.062;2024-03-25T02:18:33;100239.60;;;8.10;46.26
76808;BME280;65758;45.458;11.062;2024-03-25T02:21:00;100242.44;;;8.07;46.06
76808;BME280;65758;45.458;11.062;2024-03-25T02:23:27;100238.38;;;8.04;45.59
76808;BME280;65758;45.458;11.062;2024-03-25T02:25:54;100237.59;;;8.00;45.53
76808;BME280;65758;45.458;11.062;2024-03-25T02:28:21;100237.05;;;7.95;45.18
76808;BME280;65758;45.458;11.062;2024-03-25T02:30:47;100234.58;;;7.94;45.51
76808;BME280;65758;45.458;11.062;2024-03-25T02:33:14;100239.67;;;7.93;45.61
76808;BME280;65758;45.458;11.062;2024-03-25T02:35:42;100237.94;;;7.89;45.14
76808;BME280;65758;45.458;11.062;2024-03-25T02:38:10;100239.34;;;7.89;45.44
76808;BME280;65758;45.458;11.062;2024-03-25T02:40:37;100235.97;;;7.89;45.65
76808;BME280;65758;45.458;11.062;2024-03-25T02:43:04;100235.23;;;7.90;45.73
76808;BME280;65758;45.458;11.062;2024-03-25T02:45:33;100237.54;;;7.91;45.70
76808;BME280;65758;45.458;11.062;2024-03-25T02:48:00;100235.02;;;7.90;45.94
76808;BME280;65758;45.458;11.062;2024-03-25T02:50:26;100233.67;;;7.87;45.51
76808;BME280;65758;45.458;11.062;2024-03-25T02:52:53;100232.33;;;7.83;45.05
76808;BME280;65758;45.458;11.062;2024-03-25T02:55:19;100232.14;;;7.81;45.08
76808;BME280;65758;45.458;11.062;2024-03-25T02:57:46;100230.85;;;7.81;44.95
76808;BME280;65758;45.458;11.062;2024-03-25T03:00:13;100233.06;;;7.82;45.31
76808;BME280;65758;45.458;11.062;2024-03-25T03:02:39;100232.19;;;7.82;45.24
76808;BME280;65758;45.458;11.062;2024-03-25T03:05:06;100230.59;;;7.80;45.25
76808;BME280;65758;45.458;11.062;2024-03-25T03:07:33;100228.52;;;7.77;45.21
76808;BME280;65758;45.458;11.062;2024-03-25T03:09:59;100237.38;;;7.76;45.30
76808;BME280;65758;45.458;11.062;2024-03-25T03:12:26;100232.51;;;7.76;45.30
76808;BME280;65758;45.458;11.062;2024-03-25T03:14:52;100237.28;;;7.76;45.35
76808;BME280;65758;45.458;11.062;2024-03-25T03:17:19;100230.72;;;7.74;45.69
76808;BME280;65758;45.458;11.062;2024-03-25T03:19:46;100230.84;;;7.71;45.12
76808;BME280;65758;45.458;11.062;2024-03-25T03:22:12;100225.94;;;7.63;44.52
76808;BME280;65758;45.458;11.062;2024-03-25T03:24:39;100229.61;;;7.58;44.36
76808;BME280;65758;45.458;11.062;2024-03-25T03:27:06;100224.88;;;7.53;44.24
76808;BME280;65758;45.458;11.062;2024-03-25T03:29:32;100226.98;;;7.51;44.11
76808;BME280;65758;45.458;11.062;2024-03-25T03:31:59;100226.33;;;7.49;43.96
76808;BME280;65758;45.458;11.062;2024-03-25T03:34:26;100229.30;;;7.49;44.56
76808;BME280;65758;45.458;11.062;2024-03-25T03:36:53;100231.60;;;7.50;44.45
76808;BME280;65758;45.458;11.062;2024-03-25T03:39:19;100228.64;;;7.50;44.45
76808;BME280;65758;45.458;11.062;2024-03-25T03:41:46;100226.52;;;7.47;44.30
76808;BME280;65758;45.458;11.062;2024-03-25T03:44:13;100227.00;;;7.42;44.47
76808;BME280;65758;45.458;11.062;2024-03-25T03:46:41;100226.88;;;7.42;44.55
76808;BME280;65758;45.458;11.062;2024-03-25T03:49:08;100230.16;;;7.43;44.45
76808;BME280;65758;45.458;11.062;2024-03-25T03:51:34;100226.21;;;7.41;44.07
76808;BME280;65758;45.458;11.062;2024-03-25T03:54:01;100226.83;;;7.38;44.15
76808;BME280;65758;45.458;11.062;2024-03-25T03:56:27;100234.27;;;7.37;44.27
76808;BME280;65758;45.458;11.062;2024-03-25T03:58:54;100235.77;;;7.34;44.23
76808;BME280;65758;45.458;11.062;2024-03-25T04:01:21;100238.99;;;7.32;44.29
76808;BME280;65758;45.458;11.062;2024-03-25T04:03:47;100238.02;;;7.29;44.40
76808;BME280;65758;45.458;11.062;2024-03-25T04:06:14;100243.66;;;7.24;44.03
76808;BME280;65758;45.458;11.062;2024-03-25T04:08:41;100242.24;;;7.18;43.90
76808;BME280;65758;45.458;11.062;2024-03-25T04:11:08;100244.48;;;7.16;44.02
76808;BME280;65758;45.458;11.062;2024-03-25T04:13:34;100248.73;;;7.17;44.18
76808;BME280;65758;45.458;11.062;2024-03-25T04:16:03;100254.05;;;7.19;44.25
76808;BME280;65758;45.458;11.062;2024-03-25T04:18:32;100251.73;;;7.22;44.13
76808;BME280;65758;45.458;11.062;2024-03-25T04:20:59;100250.12;;;7.26;44.52
76808;BME280;65758;45.458;11.062;2024-03-25T04:23:26;100248.86;;;7.28;44.23
76808;BME280;65758;45.458;11.062;2024-03-25T04:25:52;100247.38;;;7.29;43.89
76808;BME280;65758;45.458;11.062;2024-03-25T04:28:20;100247.00;;;7.29;43.49
76808;BME280;65758;45.458;11.062;2024-03-25T04:30:51;100248.89;;;7.30;43.61
76808;BME280;65758;45.458;11.062;2024-03-25T04:33:18;100248.04;;;7.32;43.38
76808;BME280;65758;45.458;11.062;2024-03-25T04:35:46;100249.38;;;7.35;42.96
76808;BME280;65758;45.458;11.062;2024-03-25T04:38:16;100250.80;;;7.33;43.11
76808;BME280;65758;45.458;11.062;2024-03-25T04:40:43;100245.94;;;7.34;42.74
76808;BME280;65758;45.458;11.062;2024-03-25T04:43:10;100241.17;;;7.32;42.11
76808;BME280;65758;45.458;11.062;2024-03-25T04:45:37;100237.20;;;7.26;41.52
76808;BME280;65758;45.458;11.062;2024-03-25T04:48:04;100237.59;;;7.20;41.42
76808;BME280;65758;45.458;11.062;2024-03-25T04:50:30;100236.33;;;7.14;41.43
76808;BME280;65758;45.458;11.062;2024-03-25T04:52:57;100236.12;;;7.08;41.61
76808;BME280;65758;45.458;11.062;2024-03-25T04:55:24;100237.41;;;7.05;41.78
76808;BME280;65758;45.458;11.062;2024-03-25T04:57:50;100235.00;;;7.04;42.02
76808;BME280;65758;45.458;11.062;2024-03-25T05:00:17;100232.73;;;7.03;41.86
76808;BME280;65758;45.458;11.062;2024-03-25T05:02:44;100233.12;;;7.02;41.95
76808;BME280;65758;45.458;11.062;2024-03-25T05:05:11;100232.11;;;7.04;42.00
76808;BME280;65758;45.458;11.062;2024-03-25T05:07:37;100229.90;;;7.04;41.80
76808;BME280;65758;45.458;11.062;2024-03-25T05:10:05;100231.17;;;7.08;42.30
76808;BME280;65758;45.458;11.062;2024-03-25T05:12:32;100230.83;;;7.11;41.80
76808;BME280;65758;45.458;11.062;2024-03-25T05:14:58;100233.25;;;7.10;41.70
76808;BME280;65758;45.458;11.062;2024-03-25T05:17:25;100227.97;;;7.05;41.26
76808;BME280;65758;45.458;11.062;2024-03-25T05:19:51;100227.98;;;7.01;41.14
76808;BME280;65758;45.458;11.062;2024-03-25T05:22:18;100227.80;;;7.02;41.61
76808;BME280;65758;45.458;11.062;2024-03-25T05:24:45;100234.98;;;7.06;41.54
76808;BME280;65758;45.458;11.062;2024-03-25T05:27:11;100237.54;;;7.08;41.68
76808;BME280;65758;45.458;11.062;2024-03-25T05:29:38;100239.35;;;7.10;41.12
76808;BME280;65758;45.458;11.062;2024-03-25T05:32:05;100242.70;;;7.14;41.40
76808;BME280;65758;45.458;11.062;2024-03-25T05:34:32;100244.44;;;7.18;41.11
76808;BME280;65758;45.458;11.062;2024-03-25T05:36:58;100242.48;;;7.23;41.21
76808;BME280;65758;45.458;11.062;2024-03-25T05:39:25;100241.23;;;7.23;40.50
76808;BME280;65758;45.458;11.062;2024-03-25T05:41:51;100240.92;;;7.23;40.51
76808;BME280;65758;45.458;11.062;2024-03-25T05:44:18;100243.70;;;7.38;40.29
76808;BME280;65758;45.458;11.062;2024-03-25T05:46:45;100247.02;;;7.60;39.59
76808;BME280;65758;45.458;11.062;2024-03-25T05:49:11;100250.48;;;7.93;39.46
76808;BME280;65758;45.458;11.062;2024-03-25T05:51:38;100251.73;;;8.30;39.62
76808;BME280;65758;45.458;11.062;2024-03-25T05:54:05;100249.23;;;8.69;38.82
76808;BME280;65758;45.458;11.062;2024-03-25T05:56:31;100248.89;;;9.07;38.76
76808;BME280;65758;45.458;11.062;2024-03-25T05:58:58;100253.19;;;9.37;37.78
76808;BME280;65758;45.458;11.062;2024-03-25T06:01:25;100250.18;;;9.48;36.86
76808;BME280;65758;45.458;11.062;2024-03-25T06:03:52;100253.34;;;9.50;36.58
76808;BME280;65758;45.458;11.062;2024-03-25T06:06:20;100257.13;;;9.53;36.72
76808;BME280;65758;45.458;11.062;2024-03-25T06:08:46;100250.98;;;9.60;36.89
76808;BME280;65758;45.458;11.062;2024-03-25T06:11:13;100254.80;;;9.68;36.58
76808;BME280;65758;45.458;11.062;2024-03-25T06:13:40;100255.17;;;9.72;36.28
76808;BME280;65758;45.458;11.062;2024-03-25T06:16:06;100256.18;;;9.75;36.51
76808;BME280;65758;45.458;11.062;2024-03-25T06:18:33;100259.73;;;9.90;36.81
76808;BME280;65758;45.458;11.062;2024-03-25T06:21:00;100266.70;;;10.03;36.88
76808;BME280;65758;45.458;11.062;2024-03-25T06:23:28;100274.45;;;10.19;36.84
76808;BME280;65758;45.458;11.062;2024-03-25T06:25:55;100280.16;;;10.35;36.85
76808;BME280;65758;45.458;11.062;2024-03-25T06:28:22;100280.83;;;10.53;36.72
76808;BME280;65758;45.458;11.062;2024-03-25T06:30:50;100278.69;;;10.73;37.22
76808;BME280;65758;45.458;11.062;2024-03-25T06:33:36;100283.20;;;10.93;39.22
76808;BME280;65758;45.458;11.062;2024-03-25T06:36:22;100296.36;;;11.06;41.05
76808;BME280;65758;45.458;11.062;2024-03-25T06:38:48;100299.77;;;11.15;42.15
76808;BME280;65758;45.458;11.062;2024-03-25T06:41:15;100302.92;;;11.19;42.03
76808;BME280;65758;45.458;11.062;2024-03-25T06:43:42;100307.33;;;11.20;42.26
76808;BME280;65758;45.458;11.062;2024-03-25T06:46:08;100308.86;;;11.17;42.61
76808;BME280;65758;45.458;11.062;2024-03-25T06:48:35;100305.64;;;11.15;43.33
76808;BME280;65758;45.458;11.062;2024-03-25T06:51:04;100309.81;;;11.15;43.27
76808;BME280;65758;45.458;11.062;2024-03-25T06:53:31;100310.75;;;11.19;43.43
76808;BME280;65758;45.458;11.062;2024-03-25T06:56:01;100313.63;;;11.23;42.99
76808;BME280;65758;45.458;11.062;2024-03-25T06:58:28;100317.48;;;11.31;42.83
76808;BME280;65758;45.458;11.062;2024-03-25T07:00:56;100324.75;;;11.40;42.91
76808;BME280;65758;45.458;11.062;2024-03-25T07:03:23;100327.05;;;11.46;42.58
76808;BME280;65758;45.458;11.062;2024-03-25T07:05:51;100330.30;;;11.55;42.67
76808;BME280;65758;45.458;11.062;2024-03-25T07:08:26;100328.66;;;11.64;42.49
76808;BME280;65758;45.458;11.062;2024-03-25T07:10:54;100329.42;;;11.66;41.80
76808;BME280;65758;45.458;11.062;2024-03-25T07:13:21;100329.41;;;11.65;41.09
76808;BME280;65758;45.458;11.062;2024-03-25T07:15:49;100335.52;;;11.69;41.32
76808;BME280;65758;45.458;11.062;2024-03-25T07:18:17;100336.59;;;11.77;41.06
76808;BME280;65758;45.458;11.062;2024-03-25T07:20:44;100337.02;;;11.84;41.05
76808;BME280;65758;45.458;11.062;2024-03-25T07:23:11;100341.38;;;11.95;40.93
76808;BME280;65758;45.458;11.062;2024-03-25T07:25:37;100342.73;;;12.06;40.58
76808;BME280;65758;45.458;11.062;2024-03-25T07:28:04;100345.20;;;12.12;40.54
76808;BME280;65758;45.458;11.062;2024-03-25T07:30:31;100351.90;;;12.18;39.90
76808;BME280;65758;45.458;11.062;2024-03-25T07:32:59;100356.91;;;12.25;39.89
76808;BME280;65758;45.458;11.062;2024-03-25T07:35:25;100355.30;;;12.33;39.69
76808;BME280;65758;45.458;11.062;2024-03-25T07:37:52;100357.09;;;12.42;39.32
76808;BME280;65758;45.458;11.062;2024-03-25T07:40:19;100359.73;;;12.52;39.15
76808;BME280;65758;45.458;11.062;2024-03-25T07:42:46;100365.55;;;12.61;39.57
76808;BME280;65758;45.458;11.062;2024-03-25T07:45:13;100365.01;;;12.69;40.16
76808;BME280;65758;45.458;11.062;2024-03-25T07:47:40;100367.17;;;12.76;41.06
76808;BME280;65758;45.458;11.062;2024-03-25T07:50:08;100375.17;;;12.86;41.95
76808;BME280;65758;45.458;11.062;2024-03-25T07:52:35;100379.73;;;12.93;41.88
76808;BME280;65758;45.458;11.062;2024-03-25T07:55:09;100385.44;;;13.00;41.92
76808;BME280;65758;45.458;11.062;2024-03-25T07:57:36;100394.05;;;13.07;41.77
76808;BME280;65758;45.458;11.062;2024-03-25T08:00:03;100392.57;;;13.11;41.42
76808;BME280;65758;45.458;11.062;2024-03-25T08:02:38;100400.08;;;13.17;41.52
76808;BME280;65758;45.458;11.062;2024-03-25T08:05:05;100397.52;;;13.19;41.52
76808;BME280;65758;45.458;11.062;2024-03-25T08:07:38;100394.87;;;13.25;41.66
76808;BME280;65758;45.458;11.062;2024-03-25T08:10:05;100393.81;;;13.32;41.15
76808;BME280;65758;45.458;11.062;2024-03-25T08:12:32;100396.73;;;13.36;41.28
76808;BME280;65758;45.458;11.062;2024-03-25T08:14:58;100396.02;;;13.41;41.48
76808;BME280;65758;45.458;11.062;2024-03-25T08:17:25;100395.20;;;13.45;41.14
76808;BME280;65758;45.458;11.062;2024-03-25T08:19:52;100395.09;;;13.53;40.92
76808;BME280;65758;45.458;11.062;2024-03-25T08:22:18;100398.45;;;13.63;42.06
76808;BME280;65758;45.458;11.062;2024-03-25T08:24:46;100396.67;;;13.73;41.97
76808;BME280;65758;45.458;11.062;2024-03-25T08:27:13;100398.39;;;13.82;42.02
76808;BME280;65758;45.458;11.062;2024-03-25T08:29:39;100395.21;;;13.93;42.13
76808;BME280;65758;45.458;11.062;2024-03-25T08:32:06;100391.29;;;14.02;41.57
76808;BME280;65758;45.458;11.062;2024-03-25T08:34:33;100393.39;;;14.11;41.81
76808;BME280;65758;45.458;11.062;2024-03-25T08:36:59;100396.21;;;14.23;41.49
76808;BME280;65758;45.458;11.062;2024-03-25T08:39:26;100397.81;;;14.33;41.66
76808;BME280;65758;45.458;11.062;2024-03-25T08:41:53;100401.48;;;14.45;41.47
76808;BME280;65758;45.458;11.062;2024-03-25T08:44:19;100405.30;;;14.53;41.05
76808;BME280;65758;45.458;11.062;2024-03-25T08:46:46;100407.13;;;14.61;41.53
76808;BME280;65758;45.458;11.062;2024-03-25T08:49:13;100411.39;;;14.70;41.86
76808;BME280;65758;45.458;11.062;2024-03-25T08:51:40;100408.14;;;14.81;41.86
76808;BME280;65758;45.458;11.062;2024-03-25T08:54:06;100403.59;;;14.92;41.44
76808;BME280;65758;45.458;11.062;2024-03-25T08:56:33;100399.81;;;15.02;41.86
76808;BME280;65758;45.458;11.062;2024-03-25T08:59:00;100398.29;;;15.12;41.60
76808;BME280;65758;45.458;11.062;2024-03-25T09:01:27;100399.48;;;15.16;40.68
76808;BME280;65758;45.458;11.062;2024-03-25T09:03:54;100398.87;;;15.17;41.36
76808;BME280;65758;45.458;11.062;2024-03-25T09:06:22;100397.13;;;15.22;40.94
76808;BME280;65758;45.458;11.062;2024-03-25T09:08:48;100397.33;;;15.25;41.14
76808;BME280;65758;45.458;11.062;2024-03-25T09:11:33;100397.71;;;15.32;41.04
76808;BME280;65758;45.458;11.062;2024-03-25T09:14:00;100400.23;;;15.41;41.12
76808;BME280;65758;45.458;11.062;2024-03-25T09:16:30;100398.33;;;15.52;40.96
76808;BME280;65758;45.458;11.062;2024-03-25T09:18:57;100387.36;;;15.62;40.93
76808;BME280;65758;45.458;11.062;2024-03-25T09:21:24;100387.89;;;15.68;40.59
76808;BME280;65758;45.458;11.062;2024-03-25T09:23:51;100383.49;;;15.72;41.05
76808;BME280;65758;45.458;11.062;2024-03-25T09:26:17;100381.59;;;15.76;40.76
76808;BME280;65758;45.458;11.062;2024-03-25T09:28:44;100377.81;;;15.84;40.33
76808;BME280;65758;45.458;11.062;2024-03-25T09:31:11;100380.33;;;15.94;40.59
76808;BME280;65758;45.458;11.062;2024-03-25T09:33:37;100380.90;;;16.00;40.46
76808;BME280;65758;45.458;11.062;2024-03-25T09:36:04;100380.20;;;16.07;40.89
76808;BME280;65758;45.458;11.062;2024-03-25T09:38:32;100375.46;;;16.11;40.02
76808;BME280;65758;45.458;11.062;2024-03-25T09:40:58;100374.80;;;16.13;40.26
76808;BME280;65758;45.458;11.062;2024-03-25T09:43:32;100375.77;;;16.18;40.94
76808;BME280;65758;45.458;11.062;2024-03-25T09:46:00;100378.15;;;16.26;40.85
76808;BME280;65758;45.458;11.062;2024-03-25T09:48:28;100373.14;;;16.36;40.38
76808;BME280;65758;45.458;11.062;2024-03-25T09:50:56;100374.59;;;16.43;40.03
76808;BME280;65758;45.458;11.062;2024-03-25T09:53:23;100372.05;;;16.49;39.90
76808;BME280;65758;45.458;11.062;2024-03-25T09:55:50;100365.79;;;16.58;39.77
76808;BME280;65758;45.458;11.062;2024-03-25T09:58:19;100365.47;;;16.69;40.01
76808;BME280;65758;45.458;11.062;2024-03-25T10:00:46;100362.15;;;16.82;39.15
76808;BME280;65758;45.458;11.062;2024-03-25T10:03:13;100359.27;;;16.91;39.63
76808;BME280;65758;45.458;11.062;2024-03-25T10:05:41;100355.94;;;17.01;39.73
76808;BME280;65758;45.458;11.062;2024-03-25T10:08:08;100355.27;;;17.07;38.50
76808;BME280;65758;45.458;11.062;2024-03-25T10:10:35;100357.14;;;17.08;38.19
76808;BME280;65758;45.458;11.062;2024-03-25T10:13:05;100357.30;;;17.15;39.03
76808;BME280;65758;45.458;11.062;2024-03-25T10:15:33;100353.79;;;17.26;39.04
76808;BME280;65758;45.458;11.062;2024-03-25T10:17:59;100351.27;;;17.36;38.57
76808;BME280;65758;45.458;11.062;2024-03-25T10:20:26;100347.88;;;17.45;38.44
76808;BME280;65758;45.458;11.062;2024-03-25T10:22:52;100342.87;;;17.52;38.73
76808;BME280;65758;45.458;11.062;2024-03-25T10:25:29;100338.66;;;17.58;38.27
76808;BME280;65758;45.458;11.062;2024-03-25T10:28:00;100338.70;;;17.66;38.38
76808;BME280;65758;45.458;11.062;2024-03-25T10:30:28;100334.89;;;17.73;37.45
76808;BME280;65758;45.458;11.062;2024-03-25T10:35:27;100332.31;;;17.82;36.98
76808;BME280;65758;45.458;11.062;2024-03-25T10:38:08;100331.03;;;17.83;36.62
76808;BME280;65758;45.458;11.062;2024-03-25T10:40:38;100325.43;;;17.84;36.51
76808;BME280;65758;45.458;11.062;2024-03-25T10:43:07;100319.66;;;17.88;37.94
76808;BME280;65758;45.458;11.062;2024-03-25T10:45:40;100317.27;;;17.98;36.45
76808;BME280;65758;45.458;11.062;2024-03-25T10:48:26;100317.43;;;18.07;35.67
76808;BME280;65758;45.458;11.062;2024-03-25T10:50:58;100318.09;;;18.17;34.85
76808;BME280;65758;45.458;11.062;2024-03-25T10:53:26;100314.39;;;18.24;35.31
76808;BME280;65758;45.458;11.062;2024-03-25T10:55:55;100307.36;;;18.31;34.77
76808;BME280;65758;45.458;11.062;2024-03-25T10:58:23;100304.92;;;18.36;34.36
76808;BME280;65758;45.458;11.062;2024-03-25T11:00:52;100300.38;;;18.44;34.39
76808;BME280;65758;45.458;11.062;2024-03-25T11:03:22;100292.98;;;18.49;33.78
76808;BME280;65758;45.458;11.062;2024-03-25T11:05:50;100287.70;;;18.50;34.02
76808;BME280;65758;45.458;11.062;2024-03-25T11:08:17;100290.72;;;18.56;33.95
76808;BME280;65758;45.458;11.062;2024-03-25T11:10:46;100283.74;;;18.63;33.56
76808;BME280;65758;45.458;11.062;2024-03-25T11:13:18;100276.23;;;18.71;33.42
76808;BME280;65758;45.458;11.062;2024-03-25T11:15:48;100273.95;;;18.77;33.53
76808;BME280;65758;45.458;11.062;2024-03-25T11:18:22;100273.23;;;18.83;32.54
76808;BME280;65758;45.458;11.062;2024-03-25T11:21:02;100266.20;;;18.83;32.32
76808;BME280;65758;45.458;11.062;2024-03-25T11:23:37;100266.59;;;18.76;32.21
76808;BME280;65758;45.458;11.062;2024-03-25T11:26:04;100269.52;;;18.72;32.36
76808;BME280;65758;45.458;11.062;2024-03-25T11:28:31;100269.27;;;18.73;32.83
76808;BME280;65758;45.458;11.062;2024-03-25T11:31:01;100262.59;;;18.82;33.01
76808;BME280;65758;45.458;11.062;2024-03-25T11:33:29;100261.59;;;18.93;32.27
76808;BME280;65758;45.458;11.062;2024-03-25T11:35:56;100254.88;;;18.98;31.95
76808;BME280;65758;45.458;11.062;2024-03-25T11:38:22;100246.94;;;19.04;31.93
76808;BME280;65758;45.458;11.062;2024-03-25T11:40:50;100243.90;;;19.08;32.10
76808;BME280;65758;45.458;11.062;2024-03-25T11:43:21;100244.17;;;19.14;32.25
76808;BME280;65758;45.458;11.062;2024-03-25T11:45:49;100240.06;;;19.18;31.38
76808;BME280;65758;45.458;11.062;2024-03-25T11:48:16;100236.73;;;19.17;31.56
76808;BME280;65758;45.458;11.062;2024-03-25T11:50:46;100233.13;;;19.18;31.57
76808;BME280;65758;45.458;11.062;2024-03-25T11:53:17;100232.00;;;19.15;31.27
76808;BME280;65758;45.458;11.062;2024-03-25T11:55:47;100231.64;;;19.12;31.10
76808;BME280;65758;45.458;11.062;2024-03-25T11:58:15;100231.58;;;19.07;31.38
76808;BME280;65758;45.458;11.062;2024-03-25T12:00:51;100228.77;;;19.12;32.42
76808;BME280;65758;45.458;11.062;2024-03-25T12:03:18;100229.11;;;19.12;31.52
76808;BME280;65758;45.458;11.062;2024-03-25T12:05:45;100226.06;;;19.19;32.89
76808;BME280;65758;45.458;11.062;2024-03-25T12:08:12;100224.13;;;19.32;33.25
76808;BME280;65758;45.458;11.062;2024-03-25T12:10:39;100220.96;;;19.43;32.63
76808;BME280;65758;45.458;11.062;2024-03-25T12:13:25;100216.22;;;19.52;32.84
76808;BME280;65758;45.458;11.062;2024-03-25T12:15:55;100214.91;;;19.59;33.56
76808;BME280;65758;45.458;11.062;2024-03-25T12:18:25;100211.89;;;19.60;30.78
76808;BME280;65758;45.458;11.062;2024-03-25T12:20:51;100206.23;;;19.57;30.56
76808;BME280;65758;45.458;11.062;2024-03-25T12:23:19;100202.46;;;19.55;30.13
76808;BME280;65758;45.458;11.062;2024-03-25T12:25:49;100203.72;;;19.54;30.40
76808;BME280;65758;45.458;11.062;2024-03-25T12:28:16;100198.33;;;19.49;29.97
76808;BME280;65758;45.458;11.062;2024-03-25T12:30:51;100201.95;;;19.45;30.21
76808;BME280;65758;45.458;11.062;2024-03-25T12:33:18;100197.29;;;19.44;31.43
76808;BME280;65758;45.458;11.062;2024-03-25T12:35:46;100191.88;;;19.47;31.41
76808;BME280;65758;45.458;11.062;2024-03-25T12:38:25;100192.77;;;19.50;30.47
76808;BME280;65758;45.458;11.062;2024-03-25T12:40:53;100192.77;;;19.47;29.95
76808;BME280;65758;45.458;11.062;2024-03-25T12:43:20;100188.13;;;19.44;30.85
76808;BME280;65758;45.458;11.062;2024-03-25T12:45:52;100189.05;;;19.46;31.10
76808;BME280;65758;45.458;11.062;2024-03-25T12:48:18;100185.33;;;19.50;30.99
76808;BME280;65758;45.458;11.062;2024-03-25T12:50:45;100175.52;;;19.53;30.52